Time;durP1;ratioP1;P1;durP2;ratioP2;P2;SDS_P1;SDS_P2;PMS_P1;PMS_P2;Temp;Humidity;BMP_temperature;BMP_pressure;BME280_temperature;BME280_humidity;BME280_pressure;Samples;Min_cycle;Max_cycle;Signal;HPM_P1;HPM_P2
2022/06/04 00:00:04;;;;;;;;;21.50;19.75;;;;;18.87;67.32;101205.16;5092637;27;45490;-90
2022/06/04 00:02:29;;;;;;;;;24.50;23.00;;;;;18.88;66.63;101214.78;5075823;27;45442;-90
2022/06/04 00:04:55;;;;;;;;;20.50;15.00;;;;;18.88;66.69;101220.06;5093516;27;45546;-90
2022/06/04 00:07:21;;;;;;;;;23.25;20.00;;;;;18.89;67.86;101216.50;5077998;27;45673;-89
2022/06/04 00:15:29;;;;;;;;;21.00;19.25;;;;;18.86;66.58;101208.75;5055447;27;45682;-90
2022/06/04 00:15:32;;;;;;;;;25.75;22.00;;;;;18.85;67.01;101215.81;5086748;27;45860;-90
2022/06/04 00:17:59;;;;;;;;;21.50;20.00;;;;;18.82;66.64;101212.50;5076410;27;45515;-90
2022/06/04 00:20:24;;;;;;;;;18.00;16.00;;;;;18.81;66.74;101205.50;5091697;27;45549;-90
2022/06/04 00:22:50;;;;;;;;;21.25;19.75;;;;;18.81;66.71;101208.16;5075642;27;46204;-89
2022/06/04 00:25:15;;;;;;;;;28.00;26.25;;;;;18.80;67.47;101201.16;5094912;27;45379;-90
2022/06/04 00:27:40;;;;;;;;;25.25;21.50;;;;;18.79;67.34;101204.72;5073847;27;45333;-90
2022/06/04 00:30:07;;;;;;;;;20.75;17.00;;;;;18.77;66.65;101208.28;5092160;27;45589;-90
2022/06/04 00:32:36;;;;;;;;;25.75;20.25;;;;;18.79;66.53;101215.28;5093686;27;45394;-90
2022/06/04 00:35:05;;;;;;;;;24.25;19.50;;;;;18.77;66.41;101218.81;5093031;27;45304;-89
2022/06/04 00:37:32;;;;;;;;;21.75;18.75;;;;;18.78;66.43;101222.34;5098265;27;45245;-89
2022/06/04 00:40:01;;;;;;;;;25.00;22.00;;;;;18.79;66.60;101220.53;5081002;27;45400;-90
2022/06/04 00:42:27;;;;;;;;;18.00;16.50;;;;;18.76;66.47;101214.50;5097393;27;46397;-90
2022/06/04 00:45:20;;;;;;;;;22.25;22.00;;;;;18.73;66.50;101200.63;5078449;27;45538;-90
2022/06/04 00:47:45;;;;;;;;;23.75;20.00;;;;;18.69;66.39;101197.31;5095400;27;45342;-91
2022/06/04 00:50:12;;;;;;;;;21.50;19.00;;;;;18.63;66.54;101189.75;5076678;27;45475;-90
2022/06/04 00:52:38;;;;;;;;;27.00;24.00;;;;;18.59;67.06;101185.59;5062271;27;48280;-90
2022/06/04 00:55:04;;;;;;;;;27.00;23.50;;;;;18.56;66.87;101181.34;5080506;27;45328;-90
2022/06/04 00:57:52;;;;;;;;;24.25;22.75;;;;;18.56;66.74;101170.78;5079315;27;45309;-90
2022/06/04 01:00:33;;;;;;;;;23.50;21.75;;;;;18.54;66.81;101161.28;5094336;27;45322;-90
2022/06/04 01:03:14;;;;;;;;;24.25;21.50;;;;;18.52;67.47;101168.41;5078533;27;47929;-90
2022/06/04 01:06:01;;;;;;;;;27.75;24.75;;;;;18.53;67.22;101178.00;5096724;27;45343;-91
2022/06/04 01:08:41;;;;;;;;;22.50;20.75;;;;;18.52;67.11;101184.25;5097104;27;45338;-89
2022/06/04 01:11:18;;;;;;;;;25.00;21.50;;;;;18.53;66.79;101172.75;5079937;27;45598;-90
2022/06/04 01:14:08;;;;;;;;;25.00;21.25;;;;;18.52;66.77;101168.41;5096446;27;45580;-90
2022/06/04 01:16:43;;;;;;;;;27.50;21.50;;;;;18.51;66.76;101162.28;5094695;27;45515;-89
2022/06/04 01:19:27;;;;;;;;;26.75;22.25;;;;;18.51;67.50;101158.81;5097506;27;45361;-89
2022/06/04 01:22:14;;;;;;;;;27.25;23.00;;;;;18.53;66.90;101163.03;5095277;27;45350;-89
2022/06/04 01:24:49;;;;;;;;;27.50;24.75;;;;;18.53;66.79;101165.66;5093519;27;45726;-90
2022/06/04 01:27:28;;;;;;;;;22.00;21.50;;;;;18.54;66.86;101156.84;5088776;27;45851;-89
2022/06/04 01:30:18;;;;;;;;;23.75;20.00;;;;;18.56;66.53;101156.75;5078784;27;45636;-89
2022/06/04 01:32:49;;;;;;;;;27.00;21.50;;;;;18.55;66.58;101148.00;5096215;27;45385;-90
2022/06/04 01:35:45;;;;;;;;;24.00;21.00;;;;;18.57;66.84;101137.34;5078187;27;46399;-89
2022/06/04 01:38:20;;;;;;;;;23.00;20.50;;;;;18.57;66.71;101132.09;5081052;27;45950;-90
2022/06/04 01:41:03;;;;;;;;;30.25;24.50;;;;;18.57;66.37;101132.97;5096007;27;45365;-89
2022/06/04 01:43:31;;;;;;;;;25.75;21.75;;;;;18.58;66.71;101136.44;5078619;27;45410;-89
2022/06/04 01:45:59;;;;;;;;;23.00;21.50;;;;;18.58;66.96;101131.16;5076623;27;46388;-89
2022/06/04 01:48:24;;;;;;;;;27.25;21.25;;;;;18.60;66.47;101117.91;5094563;27;45475;-90
2022/06/04 01:50:52;;;;;;;;;26.50;21.25;;;;;18.61;66.60;101116.94;5079083;27;45590;-89
2022/06/04 01:53:19;;;;;;;;;25.75;21.75;;;;;18.63;66.58;101125.63;5078776;27;45471;-90
2022/06/04 01:55:49;;;;;;;;;24.75;20.00;;;;;18.63;66.29;101129.13;5060245;27;47786;-90
2022/06/04 01:58:27;;;;;;;;;28.00;24.25;;;;;18.64;66.63;101136.06;5096756;27;45874;-90
2022/06/04 02:00:55;;;;;;;;;25.25;21.75;;;;;18.63;66.62;101137.03;5080367;27;45318;-90
2022/06/04 02:03:23;;;;;;;;;26.25;24.25;;;;;18.62;66.66;101135.31;5077642;27;45488;-89
2022/06/04 02:05:52;;;;;;;;;17.00;17.00;;;;;18.62;66.40;101145.88;5092669;27;46433;-89
2022/06/04 02:08:28;;;;;;;;;19.00;18.00;;;;;18.64;66.87;101136.06;5092057;27;46092;-90
2022/06/04 02:10:58;;;;;;;;;20.50;19.75;;;;;18.66;66.04;101131.56;5078294;27;46939;-90
2022/06/04 02:13:23;;;;;;;;;24.50;19.25;;;;;18.66;66.30;101146.53;5075900;27;45479;-89
2022/06/04 02:15:55;;;;;;;;;22.75;17.00;;;;;18.66;66.13;101154.44;5092868;27;46390;-90
2022/06/04 02:18:21;;;;;;;;;24.75;22.50;;;;;18.64;66.08;101143.16;5072079;27;45811;-90
2022/06/04 02:20:46;;;;;;;;;23.00;19.75;;;;;18.65;66.38;101158.88;5104504;27;45840;-89
2022/06/04 02:23:11;;;;;;;;;28.00;22.50;;;;;18.66;66.49;101162.38;5094597;27;45573;-90
2022/06/04 02:25:37;;;;;;;;;25.00;20.50;;;;;18.68;66.27;101163.97;5061816;27;47485;-90
2022/06/04 02:28:04;;;;;;;;;21.50;17.75;;;;;18.69;66.56;101152.50;5078495;27;60765;-89
2022/06/04 02:30:47;;;;;;;;;23.50;20.50;;;;;18.71;65.84;101133.97;5076302;27;45230;-89
2022/06/04 02:33:24;;;;;;;;;27.00;20.00;;;;;18.71;66.28;101123.41;5098951;27;45378;-89
2022/06/04 02:35:57;;;;;;;;;18.50;17.50;;;;;18.71;65.68;101115.50;5107732;27;45432;-90
2022/06/04 02:39:03;;;;;;;;;23.50;18.00;;;;;18.68;66.10;101113.88;5115847;27;45456;-89
2022/06/04 02:41:38;;;;;;;;;21.75;20.00;;;;;18.68;66.04;101124.41;5054611;28;45340;-89
2022/06/04 02:44:15;;;;;;;;;23.00;20.00;;;;;18.69;66.23;101128.75;5039295;28;45609;-90
2022/06/04 02:46:45;;;;;;;;;23.25;19.50;;;;;18.69;66.59;101115.59;5056007;28;46195;-90
2022/06/04 02:49:16;;;;;;;;;22.25;19.75;;;;;18.72;66.40;101117.19;5041356;27;45583;-90
2022/06/04 02:51:46;;;;;;;;;23.75;20.50;;;;;18.74;66.03;101113.53;5054379;28;45650;-89
2022/06/04 02:54:25;;;;;;;;;22.75;18.50;;;;;18.76;66.28;101111.66;5054940;27;45503;-90
2022/06/04 02:56:51;;;;;;;;;22.75;22.75;;;;;18.76;66.11;101095.84;5038885;28;45520;-90
2022/06/04 02:59:17;;;;;;;;;24.50;19.00;;;;;18.77;66.13;101092.25;5022684;27;45861;-91
2022/06/04 03:01:43;;;;;;;;;22.25;19.00;;;;;18.78;66.43;101093.13;5053718;28;45702;-90
2022/06/04 03:04:09;;;;;;;;;25.50;21.00;;;;;18.77;65.71;101084.34;5074557;27;45439;-90
2022/06/04 03:06:34;;;;;;;;;21.00;18.75;;;;;18.76;66.00;101076.53;5055188;27;46359;-90
2022/06/04 03:09:05;;;;;;;;;21.50;18.75;;;;;18.75;65.92;101072.19;5053023;28;45447;-90
2022/06/04 03:11:31;;;;;;;;;22.00;22.00;;;;;18.70;66.47;101076.88;5067440;27;45437;-90
2022/06/04 03:13:57;;;;;;;;;23.50;19.50;;;;;18.68;65.98;101076.97;5038956;27;45447;-90
2022/06/04 03:16:23;;;;;;;;;21.75;20.00;;;;;18.67;66.64;101085.81;5057266;28;45389;-90
2022/06/04 03:18:48;;;;;;;;;23.00;18.25;;;;;18.67;66.27;101082.34;5043371;27;45426;-90
2022/06/04 03:21:14;;;;;;;;;19.00;18.00;;;;;18.68;66.09;101070.84;5075219;27;50249;-90
2022/06/04 03:23:39;;;;;;;;;19.50;18.00;;;;;18.67;66.08;101072.63;5058857;27;45538;-90
2022/06/04 03:26:04;;;;;;;;;22.75;20.75;;;;;18.66;66.46;101083.25;5076589;27;46152;-90
2022/06/04 03:28:30;;;;;;;;;22.50;18.75;;;;;18.65;66.45;101089.50;5057848;27;46255;-89
2022/06/04 03:30:56;;;;;;;;;26.75;20.00;;;;;18.66;66.62;101085.91;5092954;27;45392;-90
2022/06/04 03:33:21;;;;;;;;;22.50;21.50;;;;;18.68;66.24;101076.13;5080050;27;45502;-90
2022/06/04 03:35:47;;;;;;;;;20.75;19.25;;;;;18.67;65.78;101055.97;5085457;27;45527;-90
2022/06/04 03:38:12;;;;;;;;;18.75;18.75;;;;;18.64;66.38;101061.41;5091388;27;45505;-90
2022/06/04 03:40:37;;;;;;;;;23.75;20.00;;;;;18.62;66.53;101085.22;5077513;27;45561;-90
2022/06/04 03:43:03;;;;;;;;;23.00;19.75;;;;;18.58;66.60;101081.91;5092580;27;49002;-90
2022/06/04 03:45:28;;;;;;;;;24.50;19.50;;;;;18.57;67.17;101095.19;5075820;27;47843;-89
2022/06/04 03:47:57;;;;;;;;;20.75;18.00;;;;;18.54;66.83;101119.09;5076570;27;45515;-89
2022/06/04 03:50:23;;;;;;;;;26.75;21.75;;;;;18.54;66.66;101125.22;5076144;27;46485;-91
2022/06/04 03:52:49;;;;;;;;;21.50;19.00;;;;;18.59;66.88;101109.16;5076154;27;45606;-90
2022/06/04 03:55:15;;;;;;;;;18.00;18.00;;;;;18.61;66.68;101099.38;5094810;27;45715;-90
2022/06/04 03:57:50;;;;;;;;;26.25;22.25;;;;;18.65;66.47;101102.69;5076331;27;45811;-90
2022/06/04 04:00:27;;;;;;;;;22.75;18.75;;;;;18.65;66.49;101102.69;5088028;27;45439;-90
2022/06/04 04:02:56;;;;;;;;;23.50;19.75;;;;;18.65;66.67;101106.16;5094332;27;45350;-90
2022/06/04 04:05:25;;;;;;;;;24.50;21.00;;;;;18.65;66.12;101102.69;5074889;27;45573;-90
2022/06/04 04:07:50;;;;;;;;;20.25;19.25;;;;;18.64;66.48;101103.59;5076228;27;45463;-89
2022/06/04 04:10:16;;;;;;;;;22.00;18.75;;;;;18.61;66.55;101099.38;5077932;27;45578;-91
2022/06/04 04:12:42;;;;;;;;;24.00;19.75;;;;;18.59;66.79;101109.16;5056112;27;56930;-91
2022/06/04 04:15:08;;;;;;;;;21.50;20.75;;;;;18.58;66.46;101115.34;5090258;27;46884;-90
2022/06/04 04:17:36;;;;;;;;;27.00;22.50;;;;;18.57;67.29;101142.63;5096800;27;45463;-90
2022/06/04 04:20:23;;;;;;;;;20.75;19.50;;;;;18.54;67.34;101161.28;5098219;27;45433;-90
2022/06/04 04:22:49;;;;;;;;;24.50;21.25;;;;;18.56;67.42;101165.50;5097126;27;45632;-91
2022/06/04 04:25:15;;;;;;;;;22.50;18.25;;;;;18.61;66.44;101167.91;5098208;27;46500;-91
2022/06/04 04:27:41;;;;;;;;;23.50;21.50;;;;;18.62;67.16;101180.13;5077464;27;45968;-90
2022/06/04 04:30:07;;;;;;;;;18.75;17.00;;;;;18.65;66.68;101182.63;5077753;27;45439;-90
2022/06/04 04:32:36;;;;;;;;;18.00;17.00;;;;;18.66;66.46;101176.38;5095545;27;45538;-91
2022/06/04 04:35:01;;;;;;;;;20.50;18.00;;;;;18.66;66.67;101176.38;5061338;27;47770;-91
2022/06/04 04:37:27;;;;;;;;;19.50;18.75;;;;;18.67;66.61;101177.25;5078380;27;45466;-91
2022/06/04 04:39:52;;;;;;;;;21.75;18.75;;;;;18.68;66.84;101186.84;5096738;27;45419;-91
2022/06/04 04:42:18;;;;;;;;;21.75;18.25;;;;;18.70;66.87;101177.06;5094777;27;45434;-91
2022/06/04 04:44:43;;;;;;;;;18.00;17.75;;;;;18.72;66.29;101183.09;5080439;27;46413;-91
2022/06/04 04:47:08;;;;;;;;;19.00;18.00;;;;;18.74;66.80;101187.38;5096409;27;45452;-91
2022/06/04 04:49:34;;;;;;;;;17.50;16.50;;;;;18.76;66.31;101179.38;5079875;27;45353;-90
2022/06/04 04:52:00;;;;;;;;;22.75;20.25;;;;;18.78;66.57;101172.22;5097988;27;45589;-91
2022/06/04 04:54:26;;;;;;;;;26.75;23.50;;;;;18.80;66.81;101188.81;5075969;27;45642;-91
2022/06/04 04:56:52;;;;;;;;;24.50;21.25;;;;;18.81;66.14;101202.88;5055398;27;45455;-90
2022/06/04 04:59:17;;;;;;;;;26.25;21.75;;;;;18.81;67.45;101210.78;5078873;27;45735;-90
2022/06/04 05:01:42;;;;;;;;;23.50;20.00;;;;;18.83;67.22;101227.38;5077833;27;45482;-90
2022/06/04 05:04:08;;;;;;;;;21.00;19.25;;;;;18.82;67.29;101245.00;5078553;27;45448;-90
2022/06/04 05:06:33;;;;;;;;;22.25;18.75;;;;;18.78;66.86;101248.72;5096145;27;45456;-90
2022/06/04 05:08:59;;;;;;;;;22.25;18.75;;;;;18.83;66.67;101217.66;5076433;27;45529;-90
2022/06/04 05:11:28;;;;;;;;;29.25;21.50;;;;;18.92;66.47;101200.47;5062934;27;45521;-91
2022/06/04 05:13:55;;;;;;;;;20.50;18.50;;;;;18.99;66.36;101190.44;5062162;27;46306;-91
2022/06/04 05:16:22;;;;;;;;;27.50;22.00;;;;;19.01;66.41;101183.28;5063574;27;45991;-90
2022/06/04 05:18:47;;;;;;;;;20.25;19.00;;;;;19.05;66.09;101193.56;5077038;27;45445;-91
2022/06/04 05:21:24;;;;;;;;;19.25;17.00;;;;;19.08;65.83;101188.13;5094309;27;45573;-90
2022/06/04 05:23:49;;;;;;;;;19.00;16.50;;;;;19.10;65.91;101182.75;5074986;27;47667;-91
2022/06/04 05:26:15;;;;;;;;;21.25;19.75;;;;;19.12;66.25;101187.00;5093954;27;45398;-91
2022/06/04 05:28:41;;;;;;;;;18.50;16.75;;;;;19.15;66.02;101173.63;5096748;27;45771;-91
2022/06/04 05:31:06;;;;;;;;;25.00;20.25;;;;;19.19;66.19;101166.41;5073867;27;45336;-91
2022/06/04 05:33:32;;;;;;;;;25.00;21.50;;;;;19.23;66.16;101167.06;5078992;27;46308;-91
2022/06/04 05:35:57;;;;;;;;;23.00;19.75;;;;;19.27;66.09;101172.06;5073298;27;45446;-90
2022/06/04 05:38:24;;;;;;;;;24.50;21.00;;;;;19.33;65.51;101165.56;5095590;27;45690;-90
2022/06/04 05:40:57;;;;;;;;;26.00;20.00;;;;;19.39;65.51;101143.25;5077924;27;45463;-90
2022/06/04 05:43:22;;;;;;;;;22.25;19.25;;;;;19.49;65.66;101162.88;5076531;27;47549;-90
2022/06/04 05:45:47;;;;;;;;;24.00;19.75;;;;;19.62;65.59;101165.66;5060866;27;53437;-90
2022/06/04 05:48:13;;;;;;;;;24.75;21.50;;;;;19.77;64.93;101155.97;5079614;27;47369;-90
2022/06/04 05:50:38;;;;;;;;;19.50;17.00;;;;;19.84;64.79;101150.22;5079053;27;45585;-90
2022/06/04 05:53:04;;;;;;;;;21.00;20.00;;;;;19.83;64.53;101142.38;5094866;27;46081;-89
2022/06/04 05:55:29;;;;;;;;;20.50;18.00;;;;;19.78;65.04;101155.88;5079285;27;45961;-90
2022/06/04 05:57:56;;;;;;;;;26.75;20.00;;;;;19.73;64.25;101164.06;5095480;27;45784;-90
2022/06/04 06:00:22;;;;;;;;;22.00;18.50;;;;;19.64;64.79;101163.75;5077978;27;45495;-89
2022/06/04 06:02:47;;;;;;;;;20.00;18.25;;;;;19.56;65.60;101188.00;5077351;27;51553;-90
2022/06/04 06:05:13;;;;;;;;;17.50;17.00;;;;;19.47;66.24;101236.91;5073247;27;61063;-89
2022/06/04 06:07:38;;;;;;;;;23.25;19.00;;;;;19.32;66.29;101278.22;5078008;27;45526;-90
2022/06/04 06:10:04;;;;;;;;;28.25;19.50;;;;;19.22;66.10;101279.69;5096512;27;45632;-90
2022/06/04 06:12:29;;;;;;;;;20.50;17.25;;;;;19.20;66.18;101270.16;5095052;27;47183;-90
2022/06/04 06:14:55;;;;;;;;;20.00;18.25;;;;;19.23;65.95;101246.25;5058891;27;45408;-90
2022/06/04 06:17:20;;;;;;;;;21.50;17.00;;;;;19.30;66.12;101244.97;5062227;27;45828;-90
2022/06/04 06:19:46;;;;;;;;;20.25;17.25;;;;;19.39;66.31;101235.63;5095063;27;45316;-90
2022/06/04 06:22:11;;;;;;;;;17.25;17.00;;;;;19.41;65.76;101236.38;5094526;27;61703;-90
2022/06/04 06:24:36;;;;;;;;;23.75;20.50;;;;;19.41;66.47;101250.47;5094413;27;50361;-89
2022/06/04 06:27:02;;;;;;;;;17.00;15.50;;;;;19.43;65.62;101258.28;5076066;27;45280;-90
2022/06/04 06:29:29;;;;;;;;;21.25;17.75;;;;;19.45;65.41;101248.50;5077782;27;45324;-90
2022/06/04 06:31:56;;;;;;;;;21.25;19.00;;;;;19.48;65.29;101251.81;5076822;27;45631;-90
2022/06/04 06:34:22;;;;;;;;;21.25;20.75;;;;;19.48;66.14;101259.72;5078750;27;45316;-90
2022/06/04 06:36:47;;;;;;;;;22.00;19.75;;;;;19.44;66.02;101276.66;5096432;27;45777;-90
2022/06/04 06:39:13;;;;;;;;;24.75;20.25;;;;;19.43;65.70;101274.97;5083536;27;45451;-91
2022/06/04 06:41:38;;;;;;;;;17.50;17.50;;;;;19.45;65.92;101261.69;5103957;27;47022;-91
2022/06/04 06:44:04;;;;;;;;;19.75;17.75;;;;;19.48;65.78;101262.38;5121865;27;44816;-90
2022/06/04 06:46:38;;;;;;;;;24.00;19.50;;;;;19.51;66.14;101277.16;5100700;27;45331;-90
2022/06/04 06:49:06;;;;;;;;;22.50;18.00;;;;;19.49;65.72;101282.53;5098131;27;45437;-91
2022/06/04 06:51:41;;;;;;;;;25.25;21.50;;;;;19.49;65.74;101292.25;5092092;27;45641;-90
2022/06/04 06:54:06;;;;;;;;;23.25;19.25;;;;;19.49;65.51;101285.19;5094323;27;45732;-91
2022/06/04 06:56:33;;;;;;;;;25.75;23.75;;;;;19.50;65.51;101281.63;5074206;27;45484;-91
2022/06/04 06:58:59;;;;;;;;;17.50;16.50;;;;;19.54;65.15;101275.22;5078391;27;45598;-90
2022/06/04 07:01:27;;;;;;;;;22.75;22.00;;;;;19.60;65.08;101262.59;5096117;27;45322;-91
2022/06/04 07:03:53;;;;;;;;;24.75;19.50;;;;;19.61;65.24;101249.28;5073605;27;45792;-90
2022/06/04 07:06:34;;;;;;;;;17.50;17.50;;;;;19.65;65.49;101247.31;5063258;27;45553;-91
2022/06/04 07:09:01;;;;;;;;;19.50;17.50;;;;;19.71;65.41;101241.69;5078170;27;45737;-91
2022/06/04 07:11:26;;;;;;;;;19.00;16.75;;;;;19.77;65.88;101236.06;5092477;27;47172;-91
2022/06/04 07:13:52;;;;;;;;;21.75;19.25;;;;;19.85;65.21;101246.16;5061501;27;45524;-91
2022/06/04 07:16:18;;;;;;;;;19.50;19.50;;;;;19.91;65.62;101251.94;5097358;27;45514;-91
2022/06/04 07:18:43;;;;;;;;;22.75;19.00;;;;;19.98;64.56;101246.28;5093807;27;45684;-90
2022/06/04 07:21:08;;;;;;;;;23.50;20.50;;;;;19.99;64.64;101242.69;5091962;27;45463;-91
2022/06/04 07:23:35;;;;;;;;;19.25;19.25;;;;;20.00;64.86;101252.31;5094078;27;45435;-91
2022/06/04 07:26:01;;;;;;;;;23.50;21.00;;;;;20.04;65.09;101240.59;5075881;27;45455;-92
2022/06/04 07:28:26;;;;;;;;;18.25;17.75;;;;;20.07;64.30;101214.84;5078801;27;45423;-91
2022/06/04 07:30:52;;;;;;;;;27.25;21.50;;;;;20.07;65.71;101208.72;5074480;27;48267;-91
2022/06/04 07:33:17;;;;;;;;;27.00;23.25;;;;;20.08;65.80;101234.22;5070095;27;45542;-91
2022/06/04 07:35:50;;;;;;;;;23.50;21.75;;;;;20.07;66.45;101249.19;5075850;27;45382;-91
2022/06/04 07:38:15;;;;;;;;;23.00;22.00;;;;;20.03;66.19;101258.25;5095200;27;45266;-91
2022/06/04 07:40:41;;;;;;;;;22.25;18.75;;;;;20.04;66.48;101262.63;5093955;27;46391;-91
2022/06/04 07:43:06;;;;;;;;;25.00;22.75;;;;;20.07;66.97;101283.56;5058219;28;45345;-91
2022/06/04 07:45:34;;;;;;;;;30.25;27.00;;;;;20.04;66.68;101293.47;5071805;27;45475;-91
2022/06/04 07:47:59;;;;;;;;;24.50;22.25;;;;;19.97;67.07;101279.78;5097479;27;45468;-92
2022/06/04 07:50:25;;;;;;;;;27.50;24.50;;;;;19.90;66.87;101292.50;5094970;27;47155;-91
2022/06/04 07:52:50;;;;;;;;;26.75;24.50;;;;;19.83;66.87;101307.00;5079997;27;45859;-91
2022/06/04 07:55:16;;;;;;;;;24.25;22.25;;;;;19.80;67.07;101303.69;5067020;27;45408;-91
2022/06/04 07:57:41;;;;;;;;;26.00;22.00;;;;;19.82;67.19;101285.97;5080495;27;45352;-91
2022/06/04 08:00:07;;;;;;;;;23.25;19.50;;;;;19.89;67.16;101280.25;5064155;27;47793;-91
2022/06/04 08:02:33;;;;;;;;;23.75;21.75;;;;;20.00;66.70;101274.31;5080995;27;45956;-90
2022/06/04 08:04:58;;;;;;;;;23.50;20.25;;;;;20.06;66.75;101273.94;5061751;27;45522;-91
2022/06/04 08:07:24;;;;;;;;;26.50;23.00;;;;;20.14;66.17;101259.41;5064988;27;50853;-91
2022/06/04 08:09:50;;;;;;;;;27.00;21.75;;;;;20.19;66.15;101255.56;5093747;27;47375;-83
2022/06/04 08:12:16;;;;;;;;;23.75;21.50;;;;;20.19;66.00;101250.25;5095158;27;45694;-83
2022/06/04 08:14:42;;;;;;;;;24.75;22.25;;;;;20.21;66.86;101243.09;5102617;27;45556;-84
2022/06/04 08:17:08;;;;;;;;;25.25;21.75;;;;;20.21;66.76;101256.31;5097432;27;45330;-85
2022/06/04 08:19:33;;;;;;;;;22.50;19.25;;;;;20.22;66.27;101244.78;5111297;27;46621;-85
2022/06/04 08:21:58;;;;;;;;;25.75;23.50;;;;;20.22;66.35;101250.06;5097141;27;71800;-84
2022/06/04 08:24:24;;;;;;;;;26.50;21.25;;;;;20.21;65.90;101234.31;5096496;27;62529;-83
2022/06/04 08:26:58;;;;;;;;;30.50;24.25;;;;;20.18;66.39;101253.00;5080053;27;45281;-81
2022/06/04 08:29:23;;;;;;;;;23.25;20.75;;;;;20.13;67.36;101276.22;5096808;27;46561;-81
2022/06/04 08:31:49;;;;;;;;;21.50;20.75;;;;;20.10;67.07;101279.91;5096957;27;49636;-85
2022/06/04 08:34:14;;;;;;;;;26.25;26.00;;;;;20.16;66.85;101281.31;5097197;27;65086;-84
2022/06/04 08:36:41;;;;;;;;;31.25;24.75;;;;;20.23;66.57;101278.19;5096197;27;65523;-85
2022/06/04 08:39:07;;;;;;;;;26.00;21.50;;;;;20.29;67.20;101288.41;5096327;27;47153;-86
2022/06/04 08:41:54;;;;;;;;;27.50;23.00;;;;;20.38;66.97;101289.63;5095521;27;45640;-86
2022/06/04 08:44:22;;;;;;;;;27.25;27.25;;;;;20.42;67.27;101287.66;5096917;27;45442;-87
2022/06/04 08:47:00;;;;;;;;;23.75;22.00;;;;;20.46;66.68;101282.06;5061919;27;45432;-87
2022/06/04 08:49:32;;;;;;;;;25.25;25.00;;;;;20.56;66.31;101277.06;5096735;27;46480;-87
2022/06/04 08:51:59;;;;;;;;;26.25;23.75;;;;;20.65;66.16;101280.94;5095304;27;46455;-88
2022/06/04 09:00:16;;;;;;;;;24.00;22.25;;;;;20.91;65.44;101268.72;5079932;27;45761;-85
2022/06/04 09:03:10;;;;;;;;;25.50;23.75;;;;;20.99;65.88;101270.91;5098109;27;45873;-86
2022/06/04 09:05:46;;;;;;;;;25.00;23.00;;;;;21.09;65.44;101285.22;5083036;27;45579;-85
2022/06/04 09:08:14;;;;;;;;;24.75;23.00;;;;;21.15;65.26;101289.25;5094069;27;45417;-86
2022/06/04 09:10:50;;;;;;;;;23.25;21.00;;;;;21.24;65.07;101293.97;5074936;27;45673;-85
2022/06/04 09:13:20;;;;;;;;;30.00;27.25;;;;;21.34;65.30;101294.19;5088745;27;45721;-85
2022/06/04 09:15:47;;;;;;;;;30.75;27.25;;;;;21.47;64.67;101308.41;5091387;27;45746;-86
2022/06/04 09:18:21;;;;;;;;;28.00;26.00;;;;;21.56;64.27;101315.72;5072159;27;45491;-85
2022/06/04 09:20:48;;;;;;;;;28.00;21.75;;;;;21.67;64.42;101301.75;5074139;27;46302;-85
2022/06/04 09:23:22;;;;;;;;;25.75;22.75;;;;;21.76;63.66;101301.13;5088773;27;45915;-86
2022/06/04 09:26:06;;;;;;;;;24.75;22.50;;;;;21.84;63.23;101297.97;5091073;27;45365;-85
2022/06/04 09:28:49;;;;;;;;;26.00;21.50;;;;;21.95;63.33;101300.75;5078803;27;45563;-84
2022/06/04 09:31:33;;;;;;;;;24.25;21.75;;;;;22.09;62.82;101298.97;5096505;27;46384;-84
2022/06/04 09:34:22;;;;;;;;;27.00;20.50;;;;;22.19;63.11;101303.53;5087980;27;45442;-83
2022/06/04 09:36:48;;;;;;;;;22.00;20.00;;;;;22.27;62.21;101299.50;5089120;27;46806;-85
2022/06/04 09:39:30;;;;;;;;;21.00;16.50;;;;;22.37;62.24;101295.28;5088283;27;45499;-84
2022/06/04 09:42:00;;;;;;;;;21.25;18.50;;;;;22.46;61.70;101291.97;5078704;27;47189;-85
2022/06/04 09:44:26;;;;;;;;;20.75;17.50;;;;;22.55;61.46;101293.13;5075573;27;45543;-83
2022/06/04 09:47:15;;;;;;;;;17.75;17.00;;;;;22.67;61.60;101286.09;5082202;27;45517;-85
2022/06/04 09:49:42;;;;;;;;;21.00;17.25;;;;;22.84;61.10;101284.91;5078204;27;46903;-83
2022/06/04 09:52:11;;;;;;;;;20.75;18.75;;;;;22.92;60.30;101287.81;5081418;27;47026;-84
2022/06/04 09:54:37;;;;;;;;;20.00;17.50;;;;;22.96;59.79;101295.47;5093952;27;45745;-84
2022/06/04 09:57:03;;;;;;;;;19.25;17.75;;;;;23.02;59.96;101291.53;5095818;27;66690;-84
2022/06/04 09:59:30;;;;;;;;;18.50;14.25;;;;;23.10;59.68;101293.66;5094683;27;45574;-83
2022/06/04 10:02:19;;;;;;;;;20.75;19.50;;;;;23.11;58.79;101293.53;5061763;27;46389;-83
2022/06/04 10:04:47;;;;;;;;;18.75;17.75;;;;;23.22;59.28;101294.56;5094991;27;46376;-81
2022/06/04 10:07:15;;;;;;;;;22.50;20.00;;;;;23.28;58.39;101292.28;5096417;27;45265;-81
2022/06/04 10:09:57;;;;;;;;;20.50;18.75;;;;;23.38;58.75;101298.63;5094952;27;45483;-81
2022/06/04 10:15:46;;;;;;;;;18.00;16.00;;;;;23.54;57.80;101297.47;5084904;27;45576;-81
2022/06/04 10:18:18;;;;;;;;;16.00;13.75;;;;;23.65;56.32;101294.88;5099866;27;45214;-81
2022/06/04 10:20:57;;;;;;;;;13.25;12.25;;;;;23.82;57.04;101295.44;5082094;27;45572;-81
2022/06/04 10:23:22;;;;;;;;;13.75;13.00;;;;;23.94;56.40;101284.72;5095994;27;46266;-79
2022/06/04 10:26:27;;;;;;;;;14.00;9.50;;;;;24.07;55.50;101286.41;5094060;27;66772;-80
2022/06/04 10:28:58;;;;;;;;;11.00;8.00;;;;;24.19;54.12;101295.25;5089738;27;45258;-80
2022/06/04 10:32:01;;;;;;;;;13.50;9.25;;;;;24.33;53.56;101287.91;5101280;27;45572;-80
2022/06/04 10:34:37;;;;;;;;;13.00;11.25;;;;;24.54;53.08;101282.72;5084567;27;45430;-80
2022/06/04 10:37:03;;;;;;;;;11.50;9.00;;;;;24.75;53.10;101283.78;5091341;27;45557;-82
2022/06/04 10:39:44;;;;;;;;;17.50;12.75;;;;;24.92;53.70;101277.94;5084226;27;45318;-81
2022/06/04 10:42:13;;;;;;;;;11.75;11.00;;;;;25.08;52.99;101270.38;5100345;27;45534;-82
2022/06/04 10:45:16;;;;;;;;;10.75;10.25;;;;;25.19;52.38;101271.34;5085401;27;46342;-79
2022/06/04 10:48:11;;;;;;;;;8.75;7.75;;;;;25.21;51.34;101270.22;5084457;27;45450;-80
2022/06/04 10:53:55;;;;;;;;;12.00;8.25;;;;;25.33;51.29;101271.06;5047680;28;45427;-80
2022/06/04 10:56:25;;;;;;;;;9.00;8.00;;;;;25.45;50.35;101267.38;5059141;28;45467;-82
2022/06/04 10:58:54;;;;;;;;;18.00;16.50;;;;;25.57;50.83;101272.66;5052314;28;45887;-80
2022/06/04 11:01:33;;;;;;;;;9.25;9.25;;;;;25.62;49.92;101263.28;5068647;28;45399;-80
2022/06/04 11:04:18;;;;;;;;;14.75;12.00;;;;;25.61;48.01;101255.41;5059996;28;46813;-81
2022/06/04 11:06:49;;;;;;;;;10.25;7.75;;;;;25.72;49.12;101265.19;5049780;28;46227;-79
2022/06/04 11:09:16;;;;;;;;;6.25;6.25;;;;;25.80;48.24;101262.72;5065316;28;45424;-80
2022/06/04 11:11:56;;;;;;;;;13.75;9.75;;;;;25.92;47.91;101263.47;5050894;28;45314;-79
2022/06/04 11:14:38;;;;;;;;;14.50;11.25;;;;;26.03;48.61;101261.59;5069154;28;45609;-80
2022/06/04 11:17:23;;;;;;;;;11.75;8.00;;;;;26.18;48.87;101267.44;5067703;28;47452;-79
2022/06/04 11:20:22;;;;;;;;;14.00;11.25;;;;;26.30;47.90;101257.53;5052370;28;45313;-80
2022/06/04 11:22:51;;;;;;;;;10.00;10.00;;;;;26.40;48.58;101252.22;5044248;28;45665;-80
2022/06/04 11:25:27;;;;;;;;;10.50;9.50;;;;;26.52;48.06;101251.13;5055877;28;45467;-80
2022/06/04 11:28:03;;;;;;;;;12.75;10.00;;;;;26.56;47.01;101247.22;5079865;27;45377;-81
2022/06/04 11:31:00;;;;;;;;;9.75;8.75;;;;;26.65;48.01;101248.25;5076399;27;45534;-81
2022/06/04 11:34:12;;;;;;;;;9.25;8.00;;;;;26.73;47.02;101239.56;5086584;27;45510;-82
2022/06/04 11:36:49;;;;;;;;;8.00;8.00;;;;;26.81;46.63;101243.22;5041021;28;45372;-83
2022/06/04 11:39:33;;;;;;;;;12.00;9.25;;;;;26.88;46.30;101240.00;5044298;28;46651;-84